地図

経路データ

SID SEASON NUMBER BASIN SUBBASIN NAME ISO_TIME NATURE LAT LON WMO_WIND WMO_PRES WMO_AGENCY TRACK_TYPE DIST2LAND LANDFALL IFLAG USA_AGENCY USA_ATCF_ID USA_LAT USA_LON USA_RECORD USA_STATUS USA_WIND USA_PRES USA_SSHS USA_R34_NE USA_R34_SE USA_R34_SW USA_R34_NW USA_R50_NE USA_R50_SE USA_R50_SW USA_R50_NW USA_R64_NE USA_R64_SE USA_R64_SW USA_R64_NW USA_POCI USA_ROCI USA_RMW USA_EYE TOKYO_LAT TOKYO_LON TOKYO_GRADE TOKYO_WIND TOKYO_PRES TOKYO_R50_DIR TOKYO_R50_LONG TOKYO_R50_SHORT TOKYO_R30_DIR TOKYO_R30_LONG TOKYO_R30_SHORT TOKYO_LAND CMA_LAT CMA_LON CMA_CAT CMA_WIND CMA_PRES HKO_LAT HKO_LON HKO_CAT HKO_WIND HKO_PRES NEWDELHI_LAT NEWDELHI_LON NEWDELHI_GRADE NEWDELHI_WIND NEWDELHI_PRES NEWDELHI_CI NEWDELHI_DP NEWDELHI_POCI REUNION_LAT REUNION_LON REUNION_TYPE REUNION_WIND REUNION_PRES REUNION_TNUM REUNION_CI REUNION_RMW REUNION_R34_NE REUNION_R34_SE REUNION_R34_SW REUNION_R34_NW REUNION_R50_NE REUNION_R50_SE REUNION_R50_SW REUNION_R50_NW REUNION_R64_NE REUNION_R64_SE REUNION_R64_SW REUNION_R64_NW BOM_LAT BOM_LON BOM_TYPE BOM_WIND BOM_PRES BOM_TNUM BOM_CI BOM_RMW BOM_R34_NE BOM_R34_SE BOM_R34_SW BOM_R34_NW BOM_R50_NE BOM_R50_SE BOM_R50_SW BOM_R50_NW BOM_R64_NE BOM_R64_SE BOM_R64_SW BOM_R64_NW BOM_ROCI BOM_POCI BOM_EYE BOM_POS_METHOD BOM_PRES_METHOD NADI_LAT NADI_LON NADI_CAT NADI_WIND NADI_PRES WELLINGTON_LAT WELLINGTON_LON WELLINGTON_WIND WELLINGTON_PRES DS824_LAT DS824_LON DS824_STAGE DS824_WIND DS824_PRES TD9636_LAT TD9636_LON TD9636_STAGE TD9636_WIND TD9636_PRES TD9635_LAT TD9635_LON TD9635_WIND TD9635_PRES TD9635_ROCI NEUMANN_LAT NEUMANN_LON NEUMANN_CLASS NEUMANN_WIND NEUMANN_PRES MLC_LAT MLC_LON MLC_CLASS MLC_WIND MLC_PRES USA_GUST BOM_GUST BOM_GUST_PER REUNION_GUST REUNION_GUST_PER USA_SEAHGT USA_SEARAD_NE USA_SEARAD_SE USA_SEARAD_SW USA_SEARAD_NW STORM_SPEED STORM_DIR
1899345S10069 1900 53 SI MM NOT_NAMED 1899-12-11 06:00:00 NR -9.80000 68.5000 reunion main 1634 1619 _____O________ -1 -9.80000 68.5000 99 9.90000 5 265
1899345S10069 1900 53 SI MM NOT_NAMED 1899-12-11 09:00:00 NR -9.82276 68.2455 main 1611 1597 _____P________ -1 -9.82276 68.2455 99 5 265
1899345S10069 1900 53 SI MM NOT_NAMED 1899-12-11 12:00:00 NR -9.84562 67.9891 main 1597 1566 _____P________ -1 -9.84562 67.9891 99 5 265
1899345S10069 1900 53 SI MM NOT_NAMED 1899-12-11 15:00:00 NR -9.86886 67.7287 main 1566 1551 _____P________ -1 -9.86886 67.7287 99 5 265
1899345S10069 1900 53 SI MM NOT_NAMED 1899-12-11 18:00:00 NR -9.89274 67.4625 main 1551 1530 _____P________ -1 -9.89274 67.4625 99 5 265
1899345S10069 1900 53 SI MM NOT_NAMED 1899-12-11 21:00:00 NR -9.91754 67.1885 main 1530 1509 _____P________ -1 -9.91754 67.1885 99 6 265
1899345S10069 1900 53 SI MM NOT_NAMED 1899-12-12 00:00:00 NR -9.94352 66.9047 main 1509 1479 _____P________ -1 -9.94352 66.9047 99 6 265
1899345S10069 1900 53 SI MM NOT_NAMED 1899-12-12 03:00:00 NR -9.97092 66.6092 main 1479 1459 _____P________ -1 -9.97092 66.6092 99 6 265
1899345S10069 1900 53 SI MM NOT_NAMED 1899-12-12 06:00:00 NR -10.0000 66.3000 reunion main 1459 1438 _____O________ -1 -10.0000 66.3000 99 9.90000 6 264
1899345S10069 1900 53 SI MM NOT_NAMED 1899-12-12 09:00:00 NR -10.0309 65.9759 main 1438 1410 _____P________ -1 -10.0309 65.9759 99 7 264
1899345S10069 1900 53 SI MM NOT_NAMED 1899-12-12 12:00:00 NR -10.0638 65.6390 main 1403 1384 _____P________ -1 -10.0638 65.6390 99 7 264
1899345S10069 1900 53 SI MM NOT_NAMED 1899-12-12 15:00:00 NR -10.0985 65.2919 main 1384 1365 _____P________ -1 -10.0985 65.2919 99 7 264
1899345S10069 1900 53 SI MM NOT_NAMED 1899-12-12 18:00:00 NR -10.1350 64.9373 main 1359 1332 _____P________ -1 -10.1350 64.9373 99 7 264
1899345S10069 1900 53 SI MM NOT_NAMED 1899-12-12 21:00:00 NR -10.1734 64.5781 main 1332 1309 _____P________ -1 -10.1734 64.5781 99 7 264
1899345S10069 1900 53 SI MM NOT_NAMED 1899-12-13 00:00:00 NR -10.2137 64.2170 main 1309 1282 _____P________ -1 -10.2137 64.2170 99 7 263
1899345S10069 1900 53 SI MM NOT_NAMED 1899-12-13 03:00:00 NR -10.2559 63.8567 main 1282 1260 _____P________ -1 -10.2559 63.8567 99 7 263
1899345S10069 1900 53 SI MM NOT_NAMED 1899-12-13 06:00:00 NR -10.3000 63.5000 reunion main 1260 1245 _____O________ -1 -10.3000 63.5000 99 9.90000 7 262
1899345S10069 1900 53 SI MM NOT_NAMED 1899-12-13 09:00:00 NR -10.3468 63.1674 main 1245 1220 _____P________ -1 -10.3468 63.1674 99 7 262
1899345S10069 1900 53 SI MM NOT_NAMED 1899-12-13 12:00:00 NR -10.3961 62.8380 main 1215 1201 _____P________ -1 -10.3961 62.8380 99 7 261
1899345S10069 1900 53 SI MM NOT_NAMED 1899-12-13 15:00:00 NR -10.4470 62.5096 main 1201 1177 _____P________ -1 -10.4470 62.5096 99 7 261
1899345S10069 1900 53 SI MM NOT_NAMED 1899-12-13 18:00:00 NR -10.4988 62.1799 main 1177 1164 _____P________ -1 -10.4988 62.1799 99 7 261
1899345S10069 1900 53 SI MM NOT_NAMED 1899-12-13 21:00:00 NR -10.5508 61.8463 main 1150 1138 _____P________ -1 -10.5508 61.8463 99 7 261
1899345S10069 1900 53 SI MM NOT_NAMED 1899-12-14 00:00:00 NR -10.6022 61.5067 main 1138 1127 _____P________ -1 -10.6022 61.5067 99 7 261
1899345S10069 1900 53 SI MM NOT_NAMED 1899-12-14 03:00:00 NR -10.6522 61.1587 main 1116 1103 _____P________ -1 -10.6522 61.1587 99 7 262
1899345S10069 1900 53 SI MM NOT_NAMED 1899-12-14 06:00:00 NR -10.7000 60.8000 reunion main 1103 1094 _____O________ -1 -10.7000 60.8000 99 9.90000 7 263
1899345S10069 1900 53 SI MM NOT_NAMED 1899-12-14 09:00:00 NR -10.7379 60.4382 main 1091 1072 _____P________ -1 -10.7379 60.4382 99 7 264
1899345S10069 1900 53 SI MM NOT_NAMED 1899-12-14 12:00:00 NR -10.7733 60.0678 main 1072 1062 _____P________ -1 -10.7733 60.0678 99 7 265
1899345S10069 1900 53 SI MM NOT_NAMED 1899-12-14 15:00:00 NR -10.8073 59.6876 main 1062 1052 _____P________ -1 -10.8073 59.6876 99 8 265
1899345S10069 1900 53 SI MM NOT_NAMED 1899-12-14 18:00:00 NR -10.8412 59.2965 main 1052 1007 _____P________ -1 -10.8412 59.2965 99 8 265
1899345S10069 1900 53 SI MM NOT_NAMED 1899-12-14 21:00:00 NR -10.8762 58.8934 main 1007 965 _____P________ -1 -10.8762 58.8934 99 8 265
1899345S10069 1900 53 SI MM NOT_NAMED 1899-12-15 00:00:00 NR -10.9136 58.4770 main 965 920 _____P________ -1 -10.9136 58.4770 99 8 265
1899345S10069 1900 53 SI MM NOT_NAMED 1899-12-15 03:00:00 NR -10.9544 58.0463 main 909 867 _____P________ -1 -10.9544 58.0463 99 9 264
1899345S10069 1900 53 SI MM NOT_NAMED 1899-12-15 06:00:00 NR -11.0000 57.6000 reunion main 867 825 _____O________ -1 -11.0000 57.6000 99 9.90000 9 264
1899345S10069 1900 53 SI MM NOT_NAMED 1899-12-15 09:00:00 NR -11.0487 57.1578 main 825 769 _____P________ -1 -11.0487 57.1578 99 9 263
1899345S10069 1900 53 SI MM NOT_NAMED 1899-12-15 12:00:00 NR -11.1013 56.7013 main 769 724 _____P________ -1 -11.1013 56.7013 99 9 263
1899345S10069 1900 53 SI MM NOT_NAMED 1899-12-15 15:00:00 NR -11.1577 56.2295 main 714 672 _____P________ -1 -11.1577 56.2295 99 10 263
1899345S10069 1900 53 SI MM NOT_NAMED 1899-12-15 18:00:00 NR -11.2180 55.7411 main 662 617 _____P________ -1 -11.2180 55.7411 99 10 263
1899345S10069 1900 53 SI MM NOT_NAMED 1899-12-15 21:00:00 NR -11.2823 55.2351 main 607 555 _____P________ -1 -11.2823 55.2351 99 10 263
1899345S10069 1900 53 SI MM NOT_NAMED 1899-12-16 00:00:00 NR -11.3507 54.7104 main 551 500 _____P________ -1 -11.3507 54.7104 99 11 262
1899345S10069 1900 53 SI MM NOT_NAMED 1899-12-16 03:00:00 NR -11.4233 54.1657 main 500 435 _____P________ -1 -11.4233 54.1657 99 11 262
1899345S10069 1900 53 SI MM NOT_NAMED 1899-12-16 06:00:00 NR -11.5000 53.6000 reunion main 435 371 _____O________ -1 -11.5000 53.6000 99 9.90000 12 262
1899345S10069 1900 53 SI MM NOT_NAMED 1899-12-16 09:00:00 NR -11.5809 52.9873 main 371 308 _____P________ -1 -11.5809 52.9873 99 12 262
1899345S10069 1900 53 SI MM NOT_NAMED 1899-12-16 12:00:00 NR -11.6662 52.3479 main 298 243 _____P________ -1 -11.6662 52.3479 99 13 262
1899345S10069 1900 53 SI MM NOT_NAMED 1899-12-16 15:00:00 NR -11.7546 51.6916 main 237 187 _____P________ -1 -11.7546 51.6916 99 13 262
1899345S10069 1900 53 SI MM NOT_NAMED 1899-12-16 18:00:00 NR -11.8448 51.0282 main 179 113 _____P________ -1 -11.8448 51.0282 99 13 262
1899345S10069 1900 53 SI MM NOT_NAMED 1899-12-16 21:00:00 NR -11.9356 50.3675 main 113 48 _____P________ -1 -11.9356 50.3675 99 13 262
1899345S10069 1900 53 SI MM NOT_NAMED 1899-12-17 00:00:00 NR -12.0257 49.7193 main 39 0 _____P________ -1 -12.0257 49.7193 99 13 262
1899345S10069 1900 53 SI MM NOT_NAMED 1899-12-17 03:00:00 NR -12.1142 49.0935 main 10 10 _____P________ -1 -12.1142 49.0935 99 12 262
1899345S10069 1900 53 SI MM NOT_NAMED 1899-12-17 06:00:00 NR -12.2000 48.5000 reunion main 46 46 _____O________ -1 -12.2000 48.5000 99 9.90000 11 263
1899345S10069 1900 53 SI MM NOT_NAMED 1899-12-17 09:00:00 NR -12.2572 47.9585 main 89 89 _____P________ -1 -12.2572 47.9585 99 10 264
1899345S10069 1900 53 SI MM NOT_NAMED 1899-12-17 12:00:00 NR -12.3102 47.4449 main 153 153 _____P________ -1 -12.3102 47.4449 99 10 264
1899345S10069 1900 53 SI MM NOT_NAMED 1899-12-17 15:00:00 NR -12.3637 46.9566 main 172 172 _____P________ -1 -12.3637 46.9566 99 9 263
1899345S10069 1900 53 SI MM NOT_NAMED 1899-12-17 18:00:00 NR -12.4223 46.4910 main 210 210 _____P________ -1 -12.4223 46.4910 99 9 262
1899345S10069 1900 53 SI MM NOT_NAMED 1899-12-17 21:00:00 NR -12.4907 46.0452 main 245 245 _____P________ -1 -12.4907 46.0452 99 9 260
1899345S10069 1900 53 SI MM NOT_NAMED 1899-12-18 00:00:00 NR -12.5733 45.6166 main 277 277 _____P________ -1 -12.5733 45.6166 99 8 257
1899345S10069 1900 53 SI MM NOT_NAMED 1899-12-18 03:00:00 NR -12.6749 45.2024 main 313 313 _____P________ -1 -12.6749 45.2024 99 8 254
1899345S10069 1900 53 SI MM NOT_NAMED 1899-12-18 06:00:00 NR -12.8000 44.8000 reunion main 349 349 _____O________ -1 -12.8000 44.8000 99 9.90000 9 253
1899345S10069 1900 53 SI MM NOT_NAMED 1899-12-18 09:00:00 NR -12.9325 44.3583 main 355 345 _____P________ -1 -12.9325 44.3583 99 9 251
1899345S10069 1900 53 SI MM NOT_NAMED 1899-12-18 12:00:00 NR -13.0849 43.9270 main 349 314 _____P________ -1 -13.0849 43.9270 99 9 248
1899345S10069 1900 53 SI MM NOT_NAMED 1899-12-18 15:00:00 NR -13.2586 43.5105 main 314 270 _____P________ -1 -13.2586 43.5105 99 9 245
1899345S10069 1900 53 SI MM NOT_NAMED 1899-12-18 18:00:00 NR -13.4552 43.1131 main 270 233 _____P________ -1 -13.4552 43.1131 99 9 241
1899345S10069 1900 53 SI MM NOT_NAMED 1899-12-18 21:00:00 NR -13.6761 42.7390 main 223 185 _____P________ -1 -13.6761 42.7390 99 8 236
1899345S10069 1900 53 SI MM NOT_NAMED 1899-12-19 00:00:00 NR -13.9228 42.3925 main 185 144 _____P________ -1 -13.9228 42.3925 99 8 231
1899345S10069 1900 53 SI MM NOT_NAMED 1899-12-19 03:00:00 NR -14.1969 42.0781 main 144 107 _____P________ -1 -14.1969 42.0781 99 8 225
1899345S10069 1900 53 SI MM NOT_NAMED 1899-12-19 06:00:00 NR -14.5000 41.8000 reunion main 107 75 _____O________ -1 -14.5000 41.8000 99 9.90000 8 221
1899345S10069 1900 53 SI MM NOT_NAMED 1899-12-19 09:00:00 NR -14.8277 41.5120 main 75 54 _____P________ -1 -14.8277 41.5120 99 9 217
1899345S10069 1900 53 SI MM NOT_NAMED 1899-12-19 12:00:00 NR -15.1870 41.2554 main 58 48 _____P________ -1 -15.1870 41.2554 99 9 212
1899345S10069 1900 53 SI MM NOT_NAMED 1899-12-19 15:00:00 NR -15.5724 41.0339 main 48 48 _____P________ -1 -15.5724 41.0339 99 9 206
1899345S10069 1900 53 SI MM NOT_NAMED 1899-12-19 18:00:00 NR -15.9785 40.8518 main 63 54 _____P________ -1 -15.9785 40.8518 99 9 200
1899345S10069 1900 53 SI MM NOT_NAMED 1899-12-19 21:00:00 NR -16.3998 40.7130 main 77 77 _____P________ -1 -16.3998 40.7130 99 9 194
1899345S10069 1900 53 SI MM NOT_NAMED 1899-12-20 00:00:00 NR -16.8308 40.6219 main 91 91 _____P________ -1 -16.8308 40.6219 99 9 188
1899345S10069 1900 53 SI MM NOT_NAMED 1899-12-20 03:00:00 NR -17.2660 40.5828 main 123 123 _____P________ -1 -17.2660 40.5828 99 9 182
1899345S10069 1900 53 SI MM NOT_NAMED 1899-12-20 06:00:00 NR -17.7000 40.6000 reunion main 158 158 _____O________ -1 -17.7000 40.6000 99 9.90000 9 175
1899345S10069 1900 53 SI MM NOT_NAMED 1899-12-20 09:00:00 NR -18.1226 40.6497 main 198 198 _____P________ -1 -18.1226 40.6497 99 9 170
1899345S10069 1900 53 SI MM NOT_NAMED 1899-12-20 12:00:00 NR -18.5494 40.7577 main 246 246 _____P________ -1 -18.5494 40.7577 99 9 163
1899345S10069 1900 53 SI MM NOT_NAMED 1899-12-20 15:00:00 NR -18.9767 40.9182 main 293 293 _____P________ -1 -18.9767 40.9182 99 9 158
1899345S10069 1900 53 SI MM NOT_NAMED 1899-12-20 18:00:00 NR -19.4012 41.1254 main 324 282 _____P________ -1 -19.4012 41.1254 99 10 153
1899345S10069 1900 53 SI MM NOT_NAMED 1899-12-20 21:00:00 NR -19.8193 41.3732 main 282 238 _____P________ -1 -19.8193 41.3732 99 10 149
1899345S10069 1900 53 SI MM NOT_NAMED 1899-12-21 00:00:00 NR -20.2274 41.6557 main 230 188 _____P________ -1 -20.2274 41.6557 99 10 145
1899345S10069 1900 53 SI MM NOT_NAMED 1899-12-21 03:00:00 NR -20.6222 41.9667 main 179 132 _____P________ -1 -20.6222 41.9667 99 10 142
1899345S10069 1900 53 SI MM NOT_NAMED 1899-12-21 06:00:00 NR -21.0000 42.3000 reunion main 132 93 _____O________ -1 -21.0000 42.3000 99 9.90000 9 141
1899345S10069 1900 53 SI MM NOT_NAMED 1899-12-21 09:00:00 NR -21.3494 42.6063 main 93 52 _____P________ -1 -21.3494 42.6063 99 9 139
1899345S10069 1900 53 SI MM NOT_NAMED 1899-12-21 12:00:00 NR -21.6819 42.9400 main 52 0 _____P________ -1 -21.6819 42.9400 99 9 135
1899345S10069 1900 53 SI MM NOT_NAMED 1899-12-21 15:00:00 NR -22.0007 43.2990 main 0 0 _____P________ -1 -22.0007 43.2990 99 9 132
1899345S10069 1900 53 SI MM NOT_NAMED 1899-12-21 18:00:00 NR -22.3088 43.6812 main 0 0 _____P________ -1 -22.3088 43.6812 99 10 130
1899345S10069 1900 53 SI MM NOT_NAMED 1899-12-21 21:00:00 NR -22.6096 44.0844 main 0 0 _____P________ -1 -22.6096 44.0844 99 10 128
1899345S10069 1900 53 SI MM NOT_NAMED 1899-12-22 00:00:00 NR -22.9062 44.5067 main 0 0 _____P________ -1 -22.9062 44.5067 99 10 127
1899345S10069 1900 53 SI MM NOT_NAMED 1899-12-22 03:00:00 NR -23.2020 44.9459 main 0 0 _____P________ -1 -23.2020 44.9459 99 10 126
1899345S10069 1900 53 SI MM NOT_NAMED 1899-12-22 06:00:00 NR -23.5000 45.4000 reunion main 0 0 _____O________ -1 -23.5000 45.4000 99 9.90000 10 126
1899345S10069 1900 53 SI MM NOT_NAMED 1899-12-22 09:00:00 NR -23.8223 45.8656 main 0 0 _____P________ -1 -23.8223 45.8656 99 11 127
1899345S10069 1900 53 SI MM NOT_NAMED 1899-12-22 12:00:00 NR -24.1459 46.3511 main 0 0 _____P________ -1 -24.1459 46.3511 99 11 126
1899345S10069 1900 53 SI MM NOT_NAMED 1899-12-22 15:00:00 NR -24.4686 46.8515 main 0 0 _____P________ -1 -24.4686 46.8515 99 11 125
1899345S10069 1900 53 SI MM NOT_NAMED 1899-12-22 18:00:00 NR -24.7885 47.3619 main 23 23 _____P________ -1 -24.7885 47.3619 99 11 124
1899345S10069 1900 53 SI MM NOT_NAMED 1899-12-22 21:00:00 NR -25.1034 47.8771 main 81 81 _____P________ -1 -25.1034 47.8771 99 11 124
1899345S10069 1900 53 SI MM NOT_NAMED 1899-12-23 00:00:00 NR -25.4115 48.3920 main 138 138 _____P________ -1 -25.4115 48.3920 99 11 123
1899345S10069 1900 53 SI MM NOT_NAMED 1899-12-23 03:00:00 NR -25.7109 48.9014 main 196 196 _____P________ -1 -25.7109 48.9014 99 11 123
1899345S10069 1900 53 SI MM NOT_NAMED 1899-12-23 06:00:00 NR -26.0000 49.4000 reunion main 256 256 _____O________ -1 -26.0000 49.4000 99 9.90000 10 123
1899345S10069 1900 53 SI MM NOT_NAMED 1899-12-23 09:00:00 NR -26.2525 49.8358 main 306 306 _____P________ -1 -26.2525 49.8358 99 9 123
1899345S10069 1900 53 SI MM NOT_NAMED 1899-12-23 12:00:00 NR -26.4928 50.2578 main 361 361 _____P________ -1 -26.4928 50.2578 99 9 122
1899345S10069 1900 53 SI MM NOT_NAMED 1899-12-23 15:00:00 NR -26.7267 50.6748 main 406 406 _____P________ -1 -26.7267 50.6748 99 9 122
1899345S10069 1900 53 SI MM NOT_NAMED 1899-12-23 18:00:00 NR -26.9600 51.0956 main 457 457 _____P________ -1 -26.9600 51.0956 99 9 122
1899345S10069 1900 53 SI MM NOT_NAMED 1899-12-23 21:00:00 NR -27.1985 51.5291 main 503 503 _____P________ -1 -27.1985 51.5291 99 9 122
1899345S10069 1900 53 SI MM NOT_NAMED 1899-12-24 00:00:00 NR -27.4477 51.9847 main 557 557 _____P________ -1 -27.4477 51.9847 99 10 122
1899345S10069 1900 53 SI MM NOT_NAMED 1899-12-24 03:00:00 NR -27.7131 52.4718 main 616 616 _____P________ -1 -27.7131 52.4718 99 11 122
1899345S10069 1900 53 SI MM NOT_NAMED 1899-12-24 06:00:00 NR -28.0000 53.0000 reunion main 675 675 _____O________ -1 -28.0000 53.0000 99 9.90000 13 122
1899345S10069 1900 53 SI MM NOT_NAMED 1899-12-24 09:00:00 NR -28.3705 53.6802 main 756 756 _____P________ -1 -28.3705 53.6802 99 15 122
1899345S10069 1900 53 SI MM NOT_NAMED 1899-12-24 12:00:00 NR -28.7652 54.4136 main 835 834 _____P________ -1 -28.7652 54.4136 99 15 121
1899345S10069 1900 53 SI MM NOT_NAMED 1899-12-24 15:00:00 NR -29.1702 55.1774 main 872 871 _____P________ -1 -29.1702 55.1774 99 16 121
1899345S10069 1900 53 SI MM NOT_NAMED 1899-12-24 18:00:00 NR -29.5722 55.9480 main 916 916 _____P________ -1 -29.5722 55.9480 99 15 121
1899345S10069 1900 53 SI MM NOT_NAMED 1899-12-24 21:00:00 NR -29.9582 56.7010 main 966 966 _____P________ -1 -29.9582 56.7010 99 15 120
1899345S10069 1900 53 SI MM NOT_NAMED 1899-12-25 00:00:00 NR -30.3160 57.4113 main 1010 1010 _____P________ -1 -30.3160 57.4113 99 13 120
1899345S10069 1900 53 SI MM NOT_NAMED 1899-12-25 03:00:00 NR -30.6337 58.0531 main 1057 1057 _____P________ -1 -30.6337 58.0531 99 12 120
1899345S10069 1900 53 SI MM NOT_NAMED 1899-12-25 06:00:00 NR -30.9000 58.6000 reunion main 1102 1102 _____O________ -1 -30.9000 58.6000 99 9.90000 10 119
1899345S10069 1900 53 SI MM NOT_NAMED 1899-12-25 09:00:00 NR -31.1072 59.0324 main 1134 1134 _____P________ -1 -31.1072 59.0324 99 7 119
1899345S10069 1900 53 SI MM NOT_NAMED 1899-12-25 12:00:00 NR -31.2607 59.3576 main 1168 1168 _____P________ -1 -31.2607 59.3576 99 5 119
1899345S10069 1900 53 SI MM NOT_NAMED 1899-12-25 15:00:00 NR -31.3689 59.5904 main 1185 1185 _____P________ -1 -31.3689 59.5904 99 4 118
1899345S10069 1900 53 SI MM NOT_NAMED 1899-12-25 18:00:00 NR -31.4396 59.7457 main 1188 1188 _____P________ -1 -31.4396 59.7457 99 2 118
1899345S10069 1900 53 SI MM NOT_NAMED 1899-12-25 21:00:00 NR -31.4806 59.8388 main 1202 1202 _____P________ -1 -31.4806 59.8388 99 1 117
1899345S10069 1900 53 SI MM NOT_NAMED 1899-12-26 00:00:00 NR -31.4994 59.8852 main 1206 1206 _____P________ -1 -31.4994 59.8852 99 1 114
1899345S10069 1900 53 SI MM NOT_NAMED 1899-12-26 03:00:00 NR -31.5034 59.9004 main 1206 1206 _____P________ -1 -31.5034 59.9004 99 0 0
1899345S10069 1900 53 SI MM NOT_NAMED 1899-12-26 06:00:00 NR -31.5000 59.9000 reunion main 1206 _____O________ -1 -31.5000 59.9000 99 9.90000 0 0

IBTrACS Databaseについて

本データベースは、米国NOAAが公開する1842年以降の世界の熱帯低気圧のベストトラックデータアーカイブInternational Best Track Archive for Climate Stewardship (IBTrACS)を、ウェブで閲覧しやすい形式に変換したものです。

最終更新日:2021-12-08